Ischia Jet — IOBI — position and weather

sailwx.info

Track history (hours):
 
Tides and Currents Weather Stations Pressure Air Temp Water Temp Dewpoint Dewpoint Depression Visibility Wind Speed Wind Dir Waves Ship Positions

Ischia Jet

Last reported at 2015-Jun-30 07:33 UTC. Time now 2015-Jun-30 08:20 UTC.
Position N 40°33' E 014°14'.

Length 42 m; draft 1.2 m.

Type: Passenger vessel. MMSI: 247048700.

Date/timePositionNaut miles runAvg speedWind from/ knotsBaromVisibWave heightAir tempDewpointWater temp
2015-Jun-30 07:33N 40°33' E 014°14'1313.4
2015-Jun-30 06:34N 40°42' E 014°29'0 0.0
2015-Jun-30 05:13N 40°42' E 014°29'6 0.4
2015-Jun-29 14:32N 40°38' E 014°23'8 7.7
2015-Jun-29 13:33N 40°33' E 014°14'8 6.3
2015-Jun-29 12:19N 40°38' E 014°23'810.1
2015-Jun-29 11:33N 40°33' E 014°14'0 0.0
2015-Jun-29 10:33N 40°33' E 014°14'7 6.1
2015-Jun-29 09:29N 40°34' E 014°23'2 1.6
2015-Jun-29 08:19N 40°34' E 014°25'810.8
2015-Jun-29 07:33N 40°33' E 014°14'14 0.9
2015-Jun-28 16:33N 40°42' E 014°28'1413.7
2015-Jun-28 15:33N 40°33' E 014°14'8 7.5
2015-Jun-28 14:33N 40°38' E 014°23'8 7.2
2015-Jun-28 13:29N 40°33' E 014°14'7 7.7
2015-Jun-28 12:33N 40°38' E 014°21'7 7.0
2015-Jun-28 11:33N 40°33' E 014°14'0 0.0
2015-Jun-28 10:33N 40°33' E 014°14'8 7.3
2015-Jun-28 09:27N 40°34' E 014°25'5 5.5
2015-Jun-28 08:32N 40°36' E 014°31'1312.9
2015-Jun-28 07:31N 40°33' E 014°14'7 0.4
2015-Jun-27 14:32N 40°38' E 014°22'7 7.3
2015-Jun-27 13:33N 40°34' E 014°15'16 7.6
2015-Jun-27 11:24N 40°50' E 014°17'1619.2
2015-Jun-27 10:33N 40°33' E 014°14'3 1.2
2015-Jun-27 08:10N 40°34' E 014°18'3 4.5
2015-Jun-27 07:32N 40°33' E 014°14'13 1.0
2015-Jun-26 17:26N 40°42' E 014°29'2 1.7
2015-Jun-26 16:33N 40°41' E 014°27'1211.6
2015-Jun-26 15:30N 40°33' E 014°14'0 0.0
2015-Jun-26 14:32N 40°33' E 014°14'0 0.1
2015-Jun-26 13:34N 40°33' E 014°15'16 7.5
2015-Jun-26 11:23N 40°50' E 014°17'1617.8
2015-Jun-26 10:28N 40°33' E 014°14'12 9.3
2015-Jun-26 09:11N 40°38' E 014°29'6 6.4
2015-Jun-26 08:18N 40°34' E 014°23'6 8.7
2015-Jun-26 07:33N 40°34' E 014°15'13 5.5
2015-Jun-26 05:08N 40°42' E 014°29'6 0.4
2015-Jun-25 14:31N 40°38' E 014°23'8 7.8
2015-Jun-25 13:33N 40°33' E 014°14'16 7.3
2015-Jun-25 11:22N 40°49' E 014°17'1619.2
2015-Jun-25 10:32N 40°33' E 014°14'10 8.8
2015-Jun-25 09:22N 40°36' E 014°27'4 3.3
2015-Jun-25 08:19N 40°34' E 014°23'7 9.0
2015-Jun-25 07:33N 40°33' E 014°14'13 0.9
2015-Jun-24 16:34N 40°42' E 014°27'1312.7
2015-Jun-24 15:32N 40°33' E 014°14'0 0.0
2015-Jun-24 14:31N 40°33' E 014°14'2 1.8
2015-Jun-24 13:33N 40°35' E 014°16'1514.6
2015-Jun-24 12:29N 40°50' E 014°16'1716.9
2015-Jun-24 11:30N 40°33' E 014°14'0 0.0
2015-Jun-24 10:33N 40°33' E 014°14'13 6.2
2015-Jun-24 08:31N 40°36' E 014°31'1313.0
2015-Jun-24 07:33N 40°33' E 014°14'1313.1
2015-Jun-24 06:32N 40°42' E 014°29'1 0.0
2015-Jun-22 16:33N 40°42' E 014°28'1413.4
2015-Jun-22 15:32N 40°33' E 014°14'1 0.6
2015-Jun-22 14:32N 40°34' E 014°15'1 0.6
2015-Jun-22 13:33N 40°33' E 014°14'0 0.2
2015-Jun-22 12:33N 40°34' E 014°15'0 0.0
2015-Jun-22 07:33N 40°33' E 014°14'1312.4
2015-Jun-22 06:28N 40°42' E 014°29'0 0.1
2015-Jun-22 05:33N 40°42' E 014°29'4 0.3
2015-Jun-21 16:31N 40°40' E 014°24'1010.3
2015-Jun-21 15:33N 40°33' E 014°14'8 7.6
2015-Jun-21 14:33N 40°38' E 014°23'8 7.6
2015-Jun-21 13:34N 40°33' E 014°14'16 7.5
2015-Jun-21 11:25N 40°49' E 014°17'1617.7
2015-Jun-21 10:31N 40°33' E 014°14'7 3.0
2015-Jun-21 08:14N 40°34' E 014°23'7 8.9
2015-Jun-21 07:29N 40°33' E 014°14'12 0.8
2015-Jun-20 16:32N 40°41' E 014°26'1211.5
2015-Jun-20 15:30N 40°33' E 014°14'1 1.0
2015-Jun-20 14:33N 40°34' E 014°15'1 0.8
2015-Jun-20 13:24N 40°33' E 014°14'0 0.1
2015-Jun-20 12:27N 40°33' E 014°14'0 0.0
2015-Jun-20 11:33N 40°33' E 014°14'0 0.0
2015-Jun-20 10:29N 40°33' E 014°14'9 4.2
2015-Jun-20 08:27N 40°35' E 014°26'  
Track history (hours):
 
Tides and Currents Weather Stations Pressure Air Temp Water Temp Dewpoint Dewpoint Depression Visibility Wind Speed Wind Dir Waves Ship Positions

Ischia Jet

Last reported at 2015-Jun-30 07:33 UTC. Time now 2015-Jun-30 08:20 UTC.
Position N 40°33' E 014°14'.

Length 42 m; draft 1.2 m.

Type: Passenger vessel. MMSI: 247048700.

Date/timePositionNaut miles runAvg speedWind from/ knotsBaromVisibWave heightAir tempDewpointWater temp
2015-Jun-30 07:33N 40°33' E 014°14'1313.4
2015-Jun-30 06:34N 40°42' E 014°29'0 0.0
2015-Jun-30 05:13N 40°42' E 014°29'6 0.4
2015-Jun-29 14:32N 40°38' E 014°23'8 7.7
2015-Jun-29 13:33N 40°33' E 014°14'8 6.3
2015-Jun-29 12:19N 40°38' E 014°23'810.1
2015-Jun-29 11:33N 40°33' E 014°14'0 0.0
2015-Jun-29 10:33N 40°33' E 014°14'7 6.1
2015-Jun-29 09:29N 40°34' E 014°23'2 1.6
2015-Jun-29 08:19N 40°34' E 014°25'810.8
2015-Jun-29 07:33N 40°33' E 014°14'14 0.9
2015-Jun-28 16:33N 40°42' E 014°28'1413.7
2015-Jun-28 15:33N 40°33' E 014°14'8 7.5
2015-Jun-28 14:33N 40°38' E 014°23'8 7.2
2015-Jun-28 13:29N 40°33' E 014°14'7 7.7
2015-Jun-28 12:33N 40°38' E 014°21'7 7.0
2015-Jun-28 11:33N 40°33' E 014°14'0 0.0
2015-Jun-28 10:33N 40°33' E 014°14'8 7.3
2015-Jun-28 09:27N 40°34' E 014°25'5 5.5
2015-Jun-28 08:32N 40°36' E 014°31'1312.9
2015-Jun-28 07:31N 40°33' E 014°14'7 0.4
2015-Jun-27 14:32N 40°38' E 014°22'7 7.3
2015-Jun-27 13:33N 40°34' E 014°15'16 7.6
2015-Jun-27 11:24N 40°50' E 014°17'1619.2
2015-Jun-27 10:33N 40°33' E 014°14'3 1.2
2015-Jun-27 08:10N 40°34' E 014°18'3 4.5
2015-Jun-27 07:32N 40°33' E 014°14'13 1.0
2015-Jun-26 17:26N 40°42' E 014°29'2 1.7
2015-Jun-26 16:33N 40°41' E 014°27'1211.6
2015-Jun-26 15:30N 40°33' E 014°14'0 0.0
2015-Jun-26 14:32N 40°33' E 014°14'0 0.1
2015-Jun-26 13:34N 40°33' E 014°15'16 7.5
2015-Jun-26 11:23N 40°50' E 014°17'1617.8
2015-Jun-26 10:28N 40°33' E 014°14'12 9.3
2015-Jun-26 09:11N 40°38' E 014°29'6 6.4
2015-Jun-26 08:18N 40°34' E 014°23'6 8.7
2015-Jun-26 07:33N 40°34' E 014°15'13 5.5
2015-Jun-26 05:08N 40°42' E 014°29'6 0.4
2015-Jun-25 14:31N 40°38' E 014°23'8 7.8
2015-Jun-25 13:33N 40°33' E 014°14'16 7.3
2015-Jun-25 11:22N 40°49' E 014°17'1619.2
2015-Jun-25 10:32N 40°33' E 014°14'10 8.8
2015-Jun-25 09:22N 40°36' E 014°27'4 3.3
2015-Jun-25 08:19N 40°34' E 014°23'7 9.0
2015-Jun-25 07:33N 40°33' E 014°14'13 0.9
2015-Jun-24 16:34N 40°42' E 014°27'1312.7
2015-Jun-24 15:32N 40°33' E 014°14'0 0.0
2015-Jun-24 14:31N 40°33' E 014°14'2 1.8
2015-Jun-24 13:33N 40°35' E 014°16'1514.6
2015-Jun-24 12:29N 40°50' E 014°16'1716.9
2015-Jun-24 11:30N 40°33' E 014°14'0 0.0
2015-Jun-24 10:33N 40°33' E 014°14'13 6.2
2015-Jun-24 08:31N 40°36' E 014°31'1313.0
2015-Jun-24 07:33N 40°33' E 014°14'1313.1
2015-Jun-24 06:32N 40°42' E 014°29'1 0.0
2015-Jun-22 16:33N 40°42' E 014°28'1413.4
2015-Jun-22 15:32N 40°33' E 014°14'1 0.6
2015-Jun-22 14:32N 40°34' E 014°15'1 0.6
2015-Jun-22 13:33N 40°33' E 014°14'0 0.2
2015-Jun-22 12:33N 40°34' E 014°15'0 0.0
2015-Jun-22 07:33N 40°33' E 014°14'1312.4
2015-Jun-22 06:28N 40°42' E 014°29'0 0.1
2015-Jun-22 05:33N 40°42' E 014°29'4 0.3
2015-Jun-21 16:31N 40°40' E 014°24'1010.3
2015-Jun-21 15:33N 40°33' E 014°14'8 7.6
2015-Jun-21 14:33N 40°38' E 014°23'8 7.6
2015-Jun-21 13:34N 40°33' E 014°14'16 7.5
2015-Jun-21 11:25N 40°49' E 014°17'1617.7
2015-Jun-21 10:31N 40°33' E 014°14'7 3.0
2015-Jun-21 08:14N 40°34' E 014°23'7 8.9
2015-Jun-21 07:29N 40°33' E 014°14'12 0.8
2015-Jun-20 16:32N 40°41' E 014°26'1211.5
2015-Jun-20 15:30N 40°33' E 014°14'1 1.0
2015-Jun-20 14:33N 40°34' E 014°15'1 0.8
2015-Jun-20 13:24N 40°33' E 014°14'0 0.1
2015-Jun-20 12:27N 40°33' E 014°14'0 0.0
2015-Jun-20 11:33N 40°33' E 014°14'0 0.0
2015-Jun-20 10:29N 40°33' E 014°14'9 4.2
2015-Jun-20 08:27N 40°35' E 014°26'  

Dump ship's entire track history